Time;durP1;ratioP1;P1;durP2;ratioP2;P2;SDS_P1;SDS_P2;PMS_P1;PMS_P2;Temp;Humidity;BMP_temperature;BMP_pressure;BME280_temperature;BME280_humidity;BME280_pressure;Samples;Min_cycle;Max_cycle;Signal;HPM_P1;HPM_P2
2020/12/30 04:10:14;;;;;;;14.18;10.48;;;3.20;99.90;;;;;;5015310;23;20240;-80
2020/12/30 04:12:40;;;;;;;10.60;9.50;;;2.90;99.90;;;;;;5032657;28;20204;-80
2020/12/30 04:15:06;;;;;;;10.82;9.27;;;3.30;99.90;;;;;;5013370;28;20203;-80
2020/12/30 04:17:32;;;;;;;14.20;10.88;;;3.20;99.90;;;;;;5013461;28;20173;-80
2020/12/30 04:19:58;;;;;;;11.73;10.10;;;;;;;;;;5012028;28;20228;-77
2020/12/30 04:22:24;;;;;;;12.32;10.82;;;3.20;99.90;;;;;;5011943;28;20204;-76
2020/12/30 04:24:49;;;;;;;10.77;9.25;;;3.10;99.90;;;;;;5011556;28;20188;-79
2020/12/30 04:27:15;;;;;;;10.57;9.48;;;;;;;;;;5013260;28;20205;-79
2020/12/30 04:29:41;;;;;;;11.52;10.27;;;;;;;;;;5013088;28;20671;-80
2020/12/30 04:32:07;;;;;;;13.63;11.13;;;3.20;99.90;;;;;;5013108;28;20172;-80
2020/12/30 04:34:32;;;;;;;13.73;10.65;;;3.30;99.90;;;;;;5011785;28;20217;-77
2020/12/30 04:36:58;;;;;;;12.32;10.50;;;3.20;99.90;;;;;;5011670;28;20177;-76
2020/12/30 04:39:24;;;;;;;12.00;10.73;;;3.10;99.90;;;;;;5012605;28;20197;-76
2020/12/30 04:41:51;;;;;;;12.05;10.75;;;3.20;99.90;;;;;;5011521;28;20617;-77
2020/12/30 04:44:18;;;;;;;12.68;10.60;;;3.50;99.90;;;;;;5012912;28;20193;-79
2020/12/30 04:46:47;;;;;;;10.85;9.50;;;3.20;99.90;;;;;;5012996;28;20201;-80
2020/12/30 04:49:13;;;;;;;11.02;9.65;;;3.30;99.90;;;;;;5012846;28;20209;-80
2020/12/30 04:51:40;;;;;;;13.48;10.10;;;3.60;99.90;;;;;;5012894;28;20173;-80
2020/12/30 04:54:06;;;;;;;11.65;10.45;;;3.20;99.90;;;;;;5010896;28;20217;-80
2020/12/30 04:56:41;;;;;;;11.43;10.25;;;3.20;99.90;;;;;;5011522;28;20175;-80
2020/12/30 04:59:09;;;;;;;11.55;10.15;;;3.20;99.90;;;;;;5010841;28;20197;-80
2020/12/30 05:01:44;;;;;;;12.32;10.30;;;3.20;99.90;;;;;;5012751;28;20197;-80
2020/12/30 05:04:12;;;;;;;12.45;11.10;;;3.10;99.90;;;;;;5011472;28;20196;-80
2020/12/30 05:06:40;;;;;;;11.90;10.48;;;3.20;99.90;;;;;;5012461;28;20582;-79
2020/12/30 05:09:06;;;;;;;11.85;10.20;;;3.40;99.90;;;;;;5011984;28;20225;-80
2020/12/30 05:11:32;;;;;;;12.50;10.32;;;3.20;99.90;;;;;;5012512;28;20172;-80
2020/12/30 05:13:58;;;;;;;16.30;12.77;;;3.20;99.90;;;;;;5012207;28;20215;-80
2020/12/30 05:16:28;;;;;;;15.50;11.75;;;3.30;99.90;;;;;;5012582;28;20248;-80
2020/12/30 05:19:06;;;;;;;12.90;11.32;;;3.20;99.90;;;;;;5011071;28;20264;-80
2020/12/30 05:21:31;;;;;;;14.32;11.45;;;3.20;99.90;;;;;;5012503;28;20635;-80
2020/12/30 05:23:58;;;;;;;12.30;10.98;;;3.00;99.90;;;;;;5011865;28;20193;-80
2020/12/30 05:26:24;;;;;;;13.40;10.85;;;3.20;99.90;;;;;;5012299;28;20208;-80
2020/12/30 05:28:52;;;;;;;12.13;10.82;;;3.20;99.90;;;;;;5012237;28;20349;-80
2020/12/30 05:31:18;;;;;;;12.45;11.10;;;3.30;99.90;;;;;;5011166;28;20173;-79
2020/12/30 05:33:43;;;;;;;13.85;10.88;;;3.20;99.90;;;;;;5010788;28;20216;-80
2020/12/30 05:36:10;;;;;;;12.32;10.13;;;3.30;99.90;;;;;;5012412;28;20173;-80
2020/12/30 05:38:36;;;;;;;12.63;11.32;;;4.40;99.90;;;;;;5011855;28;20196;-80
2020/12/30 05:41:02;;;;;;;12.02;10.02;;;3.30;99.90;;;;;;5011014;28;20178;-80
2020/12/30 05:43:28;;;;;;;13.15;11.10;;;3.40;99.90;;;;;;5012265;28;20255;-80
2020/12/30 05:45:54;;;;;;;13.75;11.40;;;3.40;99.90;;;;;;5012177;28;20248;-79
2020/12/30 05:48:22;;;;;;;11.90;10.68;;;3.20;99.90;;;;;;5010793;28;20201;-80
2020/12/30 05:50:57;;;;;;;12.00;10.75;;;3.50;99.90;;;;;;5012159;28;20255;-80
2020/12/30 05:53:24;;;;;;;11.80;10.15;;;3.50;99.90;;;;;;5011787;28;20209;-80
2020/12/30 05:55:52;;;;;;;15.45;10.40;;;3.50;99.90;;;;;;5012109;28;20165;-80
2020/12/30 05:58:18;;;;;;;11.30;9.73;;;3.50;99.90;;;;;;5012200;28;20675;-80
2020/12/30 06:00:45;;;;;;;11.73;10.35;;;3.50;99.90;;;;;;5010761;28;20178;-80
2020/12/30 06:03:14;;;;;;;11.75;10.48;;;3.40;99.90;;;;;;5012020;28;20176;-80
2020/12/30 06:05:41;;;;;;;11.57;9.93;;;3.40;99.90;;;;;;5011998;28;20178;-80
2020/12/30 06:08:07;;;;;;;11.95;9.77;;;3.40;99.90;;;;;;5010608;28;20177;-79
2020/12/30 06:10:37;;;;;;;12.32;10.27;;;3.70;99.90;;;;;;5010218;28;20221;-80
2020/12/30 06:13:02;;;;;;;11.73;9.65;;;3.60;99.90;;;;;;5013901;28;20301;-80
2020/12/30 06:15:33;;;;;;;12.63;10.48;;;3.50;99.90;;;;;;5015757;28;20256;-80
2020/12/30 06:18:07;;;;;;;12.23;10.93;;;3.50;99.90;;;;;;5014364;28;20185;-80
2020/12/30 06:20:36;;;;;;;12.48;10.07;;;3.50;99.90;;;;;;5015585;28;20169;-80
2020/12/30 06:23:14;;;;;;;12.02;9.68;;;3.50;99.90;;;;;;5014110;28;20173;-80
2020/12/30 06:25:50;;;;;;;11.80;10.32;;;3.50;99.90;;;;;;5014246;28;20672;-80
2020/12/30 06:28:20;;;;;;;12.27;10.95;;;3.50;99.90;;;;;;5015399;28;20658;-80
2020/12/30 06:30:51;;;;;;;13.07;10.40;;;3.50;99.90;;;;;;5015294;28;20196;-80
2020/12/30 06:33:22;;;;;;;12.32;10.30;;;3.60;99.90;;;;;;5013797;28;20570;-80
2020/12/30 06:35:54;;;;;;;11.73;10.50;;;3.60;99.90;;;;;;5013620;28;20178;-80
2020/12/30 06:38:22;;;;;;;11.13;9.93;;;3.40;99.90;;;;;;5013411;28;20193;-80
2020/12/30 06:40:54;;;;;;;12.57;10.65;;;3.50;99.90;;;;;;5014791;28;20177;-80
2020/12/30 06:43:40;;;;;;;14.48;10.82;;;3.50;99.90;;;;;;5014979;28;20190;-80
2020/12/30 06:46:26;;;;;;;13.75;10.95;;;3.80;99.90;;;;;;5013527;28;20189;-80
2020/12/30 06:49:03;;;;;;;10.75;9.65;;;3.50;99.90;;;;;;5014456;28;20695;-80
2020/12/30 06:51:40;;;;;;;11.70;10.00;;;3.60;99.90;;;;;;5013505;28;20189;-80
2020/12/30 06:54:06;;;;;;;11.20;9.90;;;3.50;99.90;;;;;;5012991;28;20228;-80
2020/12/30 06:56:39;;;;;;;10.73;9.63;;;3.50;99.90;;;;;;5014582;28;20249;-80
2020/12/30 06:59:06;;;;;;;12.00;10.50;;;3.60;99.90;;;;;;5014707;28;20689;-80
2020/12/30 07:02:00;;;;;;;12.20;9.40;;;3.50;99.90;;;;;;5014654;28;20200;-80
2020/12/30 07:04:31;;;;;;;11.13;9.98;;;3.50;99.90;;;;;;5013185;28;20197;-80
2020/12/30 07:06:57;;;;;;;10.57;9.52;;;3.50;99.90;;;;;;5013142;28;20179;-80
2020/12/30 07:09:34;;;;;;;13.90;10.13;;;3.50;99.90;;;;;;5012657;28;20236;-80
2020/12/30 07:12:04;;;;;;;9.82;8.90;;;3.50;99.90;;;;;;5014310;28;20177;-80
2020/12/30 07:14:35;;;;;;;11.98;9.90;;;3.50;99.90;;;;;;4996750;28;20229;-80
2020/12/30 07:17:03;;;;;;;11.50;8.88;;;3.60;99.90;;;;;;5014285;28;20180;-80
2020/12/30 07:19:31;;;;;;;11.02;9.35;;;3.30;99.90;;;;;;5013025;28;20196;-80
2020/12/30 07:22:06;;;;;;;10.68;9.57;;;3.50;99.90;;;;;;5012632;28;20188;-80
2020/12/30 07:24:50;;;;;;;11.98;9.70;;;3.60;99.90;;;;;;5013803;28;20224;-80
2020/12/30 07:27:17;;;;;;;11.35;9.77;;;3.60;99.90;;;;;;5014229;28;20719;-80
2020/12/30 07:29:47;;;;;;;12.45;9.02;;;3.60;99.90;;;;;;5012756;28;20199;-80
2020/12/30 07:32:15;;;;;;;10.88;8.88;;;3.70;99.90;;;;;;5014030;28;20184;-80
2020/12/30 07:34:45;;;;;;;10.25;8.95;;;3.50;99.90;;;;;;5012443;28;20255;-80
2020/12/30 07:37:13;;;;;;;11.68;9.65;;;3.60;99.90;;;;;;5014204;28;20557;-80
2020/12/30 07:39:43;;;;;;;13.98;9.65;;;3.30;99.90;;;;;;5012293;28;20752;-80
2020/12/30 07:42:20;;;;;;;10.60;9.23;;;3.60;99.90;;;;;;5014101;28;20173;-80
2020/12/30 07:44:48;;;;;;;11.27;10.07;;;3.60;99.90;;;;;;5013730;28;20252;-80
2020/12/30 07:47:15;;;;;;;12.60;10.80;;;3.60;99.90;;;;;;5013991;28;20222;-80
2020/12/30 07:49:41;;;;;;;12.55;11.25;;;3.60;99.90;;;;;;5013799;28;20196;-80
2020/12/30 07:52:07;;;;;;;11.98;10.13;;;3.60;99.90;;;;;;5012564;28;20300;-80
2020/12/30 07:54:33;;;;;;;11.50;10.20;;;3.60;99.90;;;;;;5013335;28;20213;-80
2020/12/30 07:57:13;;;;;;;12.65;11.00;;;3.60;99.90;;;;;;5012550;28;20169;-80
2020/12/30 07:59:40;;;;;;;13.38;11.63;;;3.60;99.90;;;;;;5013612;28;20239;-80
2020/12/30 08:02:10;;;;;;;13.43;10.98;;;3.60;99.90;;;;;;5013757;28;20165;-80
2020/12/30 08:04:36;;;;;;;12.25;10.68;;;3.60;99.90;;;;;;5013519;28;20189;-80
2020/12/30 08:07:07;;;;;;;11.93;9.68;;;3.60;99.90;;;;;;5013690;28;20260;-80
2020/12/30 08:09:37;;;;;;;11.98;10.70;;;3.60;99.90;;;;;;5013037;28;20221;-80
2020/12/30 08:12:05;;;;;;;11.43;9.85;;;3.60;99.90;;;;;;5012288;28;20177;-80
2020/12/30 08:14:33;;;;;;;12.65;10.73;;;3.70;99.90;;;;;;5011926;28;20221;-80
2020/12/30 08:17:04;;;;;;;12.18;10.07;;;3.60;99.90;;;;;;5012209;28;20184;-81
2020/12/30 08:19:37;;;;;;;12.00;10.80;;;3.60;99.90;;;;;;5013474;28;20212;-80
2020/12/30 08:22:19;;;;;;;10.90;9.75;;;3.70;99.90;;;;;;5013234;28;20184;-80
2020/12/30 08:24:46;;;;;;;10.40;8.98;;;3.70;99.90;;;;;;5011596;28;20280;-80
2020/12/30 08:27:16;;;;;;;11.60;9.68;;;3.80;99.90;;;;;;5011756;28;20178;-80
2020/12/30 08:29:43;;;;;;;12.05;10.10;;;4.60;99.90;;;;;;5011816;28;20201;-80
2020/12/30 08:32:20;;;;;;;13.45;11.10;;;3.70;99.90;;;;;;5011899;28;20199;-80
2020/12/30 08:35:03;;;;;;;11.27;9.98;;;3.70;99.90;;;;;;5012368;28;20213;-80
2020/12/30 08:37:32;;;;;;;11.82;10.00;;;3.70;99.90;;;;;;5013099;28;20631;-80
2020/12/30 08:40:17;;;;;;;11.40;10.27;;;3.80;99.90;;;;;;5011332;28;20609;-80
2020/12/30 08:42:52;;;;;;;13.00;10.35;;;3.80;99.90;;;;;;5010984;28;20247;-80
2020/12/30 08:45:21;;;;;;;12.30;10.65;;;3.80;99.90;;;;;;5011704;28;20272;-80
2020/12/30 08:47:52;;;;;;;12.05;10.93;;;3.80;99.90;;;;;;5011698;28;20239;-80
2020/12/30 08:50:21;;;;;;;11.40;10.30;;;3.80;99.90;;;;;;5012956;28;20165;-80
2020/12/30 08:52:47;;;;;;;12.18;10.35;;;3.80;99.90;;;;;;5012650;28;20635;-80
2020/12/30 08:55:14;;;;;;;11.27;10.07;;;3.80;99.90;;;;;;5012350;28;20212;-80
2020/12/30 08:57:44;;;;;;;11.98;10.77;;;3.80;99.90;;;;;;5012650;28;20173;-80
2020/12/30 09:00:23;;;;;;;12.00;10.60;;;3.80;99.90;;;;;;5012716;28;20213;-80
2020/12/30 09:02:51;;;;;;;12.38;10.63;;;3.90;99.90;;;;;;5012583;28;20205;-80
2020/12/30 09:05:30;;;;;;;11.05;9.95;;;3.90;99.90;;;;;;5011316;28;20177;-80
2020/12/30 09:08:17;;;;;;;12.80;11.05;;;3.90;99.90;;;;;;5012496;28;20662;-80
2020/12/30 09:10:43;;;;;;;12.27;9.63;;;3.90;99.90;;;;;;5011165;28;20560;-80
2020/12/30 09:13:13;;;;;;;12.63;9.80;;;4.00;99.90;;;;;;5011372;28;20219;-80
2020/12/30 09:15:40;;;;;;;12.00;10.68;;;3.90;99.90;;;;;;5012595;28;20173;-80
2020/12/30 09:18:08;;;;;;;11.95;10.65;;;3.90;99.90;;;;;;5012404;28;20165;-80
2020/12/30 09:20:34;;;;;;;12.45;10.90;;;3.90;99.90;;;;;;5012518;28;20184;-80
2020/12/30 09:23:01;;;;;;;13.38;11.05;;;3.90;99.90;;;;;;5012186;28;20264;-80
2020/12/30 09:25:29;;;;;;;11.70;10.50;;;4.00;99.90;;;;;;5012102;28;20174;-80
2020/12/30 09:27:55;;;;;;;11.82;10.60;;;4.00;99.90;;;;;;5012181;28;20227;-80
2020/12/30 09:30:25;;;;;;;12.65;11.07;;;4.00;99.90;;;;;;5010979;28;20723;-80
2020/12/30 09:32:53;;;;;;;12.85;10.88;;;4.00;99.90;;;;;;5012379;28;20173;-80
2020/12/30 09:35:24;;;;;;;11.77;10.38;;;4.00;99.90;;;;;;5011273;28;20200;-80
2020/12/30 09:37:52;;;;;;;12.82;11.20;;;4.00;99.90;;;;;;5010759;28;20224;-80
2020/12/30 09:40:18;;;;;;;13.52;10.75;;;4.10;99.90;;;;;;5010760;28;20177;-80
2020/12/30 09:42:45;;;;;;;11.30;9.90;;;4.10;99.90;;;;;;5012186;28;20176;-80
2020/12/30 09:45:17;;;;;;;11.77;10.65;;;4.10;99.90;;;;;;5012600;28;20201;-80
2020/12/30 09:47:43;;;;;;;10.98;9.82;;;4.10;99.90;;;;;;5016387;28;20173;-80
2020/12/30 09:50:11;;;;;;;12.27;10.52;;;4.20;99.90;;;;;;5015964;28;20193;-80
2020/12/30 09:52:39;;;;;;;13.15;9.93;;;4.20;99.90;;;;;;5014825;28;20643;-80
2020/12/30 09:55:06;;;;;;;11.80;10.30;;;4.20;99.90;;;;;;5015628;28;20734;-80
2020/12/30 09:57:33;;;;;;;10.48;9.48;;;4.30;99.90;;;;;;5014691;28;20173;-80
2020/12/30 09:59:59;;;;;;;12.57;10.15;;;4.20;99.90;;;;;;5015805;28;20189;-80
2020/12/30 10:02:26;;;;;;;11.23;10.05;;;4.30;99.90;;;;;;5016087;28;20244;-80
2020/12/30 10:04:52;;;;;;;13.48;10.43;;;4.30;99.90;;;;;;5015689;28;20381;-80
2020/12/30 10:07:18;;;;;;;11.98;10.73;;;4.30;99.90;;;;;;5016167;28;20188;-80
2020/12/30 10:09:44;;;;;;;12.45;10.38;;;4.40;99.90;;;;;;5015293;28;20283;-80
2020/12/30 10:12:09;;;;;;;11.10;10.02;;;4.30;99.90;;;;;;5014572;28;20177;-80
2020/12/30 10:14:35;;;;;;;12.13;10.40;;;4.30;99.90;;;;;;5014303;28;20712;-80
2020/12/30 10:17:01;;;;;;;10.77;9.77;;;4.30;99.90;;;;;;5014414;28;20185;-80
2020/12/30 10:19:27;;;;;;;11.95;10.60;;;4.40;99.90;;;;;;5015387;28;20745;-81
2020/12/30 10:21:53;;;;;;;10.85;9.75;;;4.40;99.90;;;;;;5015621;28;20211;-80
2020/12/30 10:24:18;;;;;;;11.80;10.43;;;4.40;99.90;;;;;;5013837;28;20205;-80
2020/12/30 10:26:44;;;;;;;12.45;10.65;;;4.40;99.90;;;;;;5014122;28;20176;-80
2020/12/30 10:29:10;;;;;;;10.88;9.77;;;4.50;99.90;;;;;;5015406;28;20197;-80
2020/12/30 10:31:36;;;;;;;11.43;9.00;;;4.50;99.90;;;;;;5013914;28;20180;-80
2020/12/30 10:34:02;;;;;;;10.88;9.52;;;4.50;99.90;;;;;;5013960;28;20229;-80
2020/12/30 10:36:32;;;;;;;11.27;10.18;;;4.50;99.90;;;;;;5014047;28;20713;-80
2020/12/30 10:39:00;;;;;;;14.73;13.18;;;4.60;99.90;;;;;;5015037;28;20200;-80
2020/12/30 10:41:26;;;;;;;12.00;10.57;;;4.60;99.90;;;;;;5013759;28;20211;-80
2020/12/30 10:43:52;;;;;;;11.60;9.65;;;4.70;99.90;;;;;;5013828;28;20225;-80
2020/12/30 10:46:19;;;;;;;11.57;10.38;;;4.70;99.90;;;;;;5014949;28;20165;-80
2020/12/30 10:48:46;;;;;;;10.02;9.02;;;4.70;99.90;;;;;;5014989;28;20671;-80
2020/12/30 10:51:16;;;;;;;10.27;8.80;;;4.80;99.90;;;;;;5015396;28;20169;-80
2020/12/30 10:53:43;;;;;;;9.55;8.48;;;4.80;99.90;;;;;;5013234;28;20217;-80
2020/12/30 10:56:09;;;;;;;10.38;9.38;;;4.80;99.90;;;;;;5014781;28;20180;-80
2020/12/30 10:58:36;;;;;;;9.55;8.57;;;4.90;99.90;;;;;;5012768;28;20209;-80
2020/12/30 11:01:06;;;;;;;9.98;8.98;;;5.00;99.90;;;;;;5014654;28;20578;-80
2020/12/30 11:03:32;;;;;;;10.82;9.70;;;5.00;99.90;;;;;;5014795;28;20604;-80
2020/12/30 11:05:58;;;;;;;10.52;9.43;;;5.00;99.90;;;;;;5014677;28;20280;-80
2020/12/30 11:08:24;;;;;;;10.70;9.60;;;5.10;99.90;;;;;;5012934;28;20284;-80
2020/12/30 11:10:49;;;;;;;10.55;9.38;;;5.10;99.90;;;;;;5013378;28;20268;-80
2020/12/30 11:13:15;;;;;;;9.80;8.80;;;5.10;99.90;;;;;;5014459;28;20205;-80
2020/12/30 11:15:41;;;;;;;10.73;9.63;;;5.20;99.90;;;;;;5014499;28;20223;-80
2020/12/30 11:18:07;;;;;;;12.15;9.98;;;5.20;99.90;;;;;;5014787;28;20170;-80
2020/12/30 11:20:32;;;;;;;10.77;9.68;;;5.20;99.90;;;;;;5013293;28;20180;-81
2020/12/30 11:22:58;;;;;;;10.25;9.13;;;5.30;99.90;;;;;;5014174;28;20628;-81
2020/12/30 11:25:24;;;;;;;9.63;8.55;;;5.30;99.90;;;;;;5014520;28;20173;-80
2020/12/30 11:27:51;;;;;;;11.05;9.68;;;5.40;99.90;;;;;;5014117;28;20197;-80
2020/12/30 11:30:19;;;;;;;10.82;9.73;;;5.40;99.90;;;;;;5013014;28;20177;-80
2020/12/30 11:32:45;;;;;;;10.85;9.75;;;5.50;99.90;;;;;;5014048;28;20280;-80
2020/12/30 11:35:12;;;;;;;10.38;9.02;;;5.60;99.90;;;;;;5013004;28;20817;-80
2020/12/30 11:37:37;;;;;;;9.73;8.73;;;5.70;99.90;;;;;;5012797;28;20623;-80
2020/12/30 11:40:05;;;;;;;8.80;8.00;;;5.70;99.90;;;;;;5013740;28;20190;-80
2020/12/30 11:42:31;;;;;;;8.00;7.30;;;5.80;99.90;;;;;;5013929;28;20176;-80
2020/12/30 11:44:57;;;;;;;9.95;8.50;;;5.90;99.90;;;;;;5012861;28;20284;-80
2020/12/30 11:47:26;;;;;;;9.98;8.95;;;6.00;99.90;;;;;;5012993;28;20619;-80
2020/12/30 11:49:52;;;;;;;10.60;8.40;;;6.10;99.90;;;;;;5013975;28;20262;-80
2020/12/30 11:52:18;;;;;;;9.18;8.27;;;6.10;99.90;;;;;;5012746;28;20173;-80
2020/12/30 11:54:44;;;;;;;10.07;8.55;;;6.20;99.90;;;;;;5013270;28;20725;-81
2020/12/30 11:57:11;;;;;;;8.93;8.02;;;6.10;99.90;;;;;;5013748;28;20185;-81
2020/12/30 11:59:37;;;;;;;9.25;8.35;;;6.10;99.90;;;;;;5013735;28;20220;-80
2020/12/30 12:02:04;;;;;;;8.48;7.63;;;6.20;99.90;;;;;;5013741;28;20180;-80
2020/12/30 12:04:31;;;;;;;8.10;7.30;;;6.20;99.90;;;;;;5012218;28;20609;-80
2020/12/30 12:07:01;;;;;;;7.97;7.18;;;6.20;99.90;;;;;;5012426;28;20169;-80
2020/12/30 12:09:27;;;;;;;7.53;6.72;;;6.20;99.90;;;;;;5012980;28;20291;-80
2020/12/30 12:11:54;;;;;;;9.13;7.50;;;6.20;99.90;;;;;;5012294;28;20706;-80
2020/12/30 12:14:20;;;;;;;8.52;7.75;;;6.20;99.90;;;;;;5012009;28;20311;-80
2020/12/30 12:16:54;;;;;;;9.90;8.95;;;6.20;99.90;;;;;;5013438;28;20183;-80
2020/12/30 12:19:20;;;;;;;10.13;8.63;;;6.20;99.90;;;;;;5013294;28;20185;-80
2020/12/30 12:21:46;;;;;;;10.60;9.55;;;6.20;99.90;;;;;;5013430;28;20210;-80
2020/12/30 12:24:13;;;;;;;9.80;8.82;;;6.20;99.90;;;;;;5012594;28;20679;-80
2020/12/30 12:26:39;;;;;;;10.55;9.45;;;6.20;99.90;;;;;;5013459;28;20165;-80
2020/12/30 12:29:33;;;;;;;11.40;10.20;;;6.20;99.90;;;;;;5013120;28;20193;-80
2020/12/30 12:32:02;;;;;;;11.60;10.43;;;6.20;99.90;;;;;;4971077;28;20268;-80
2020/12/30 12:34:28;;;;;;;11.15;10.05;;;6.10;99.90;;;;;;5012831;28;20239;-80
2020/12/30 12:36:54;;;;;;;11.88;10.60;;;6.10;99.90;;;;;;5013134;28;20642;-80
2020/12/30 12:39:19;;;;;;;11.32;10.23;;;6.10;99.90;;;;;;5011599;28;20609;-80
2020/12/30 12:41:45;;;;;;;11.98;10.75;;;6.10;99.90;;;;;;5013018;28;20165;-80
2020/12/30 12:44:11;;;;;;;12.88;10.32;;;6.10;99.90;;;;;;5012965;28;20220;-80
2020/12/30 12:46:36;;;;;;;12.25;10.68;;;6.10;99.90;;;;;;5012953;28;20169;-80
2020/12/30 12:49:02;;;;;;;11.13;10.02;;;6.00;99.90;;;;;;5011485;28;20197;-81
2020/12/30 12:51:28;;;;;;;9.85;8.85;;;6.00;99.90;;;;;;5011436;28;20699;-80
2020/12/30 12:53:57;;;;;;;11.27;9.50;;;6.00;99.90;;;;;;5010834;28;20221;-80
2020/12/30 12:56:23;;;;;;;11.07;9.93;;;6.00;99.90;;;;;;5012872;28;20196;-81
2020/12/30 12:58:48;;;;;;;11.95;10.65;;;6.00;99.90;;;;;;5011516;28;20667;-80
2020/12/30 13:01:16;;;;;;;11.45;10.02;;;6.00;99.90;;;;;;5011451;28;20730;-80
2020/12/30 13:03:41;;;;;;;11.55;10.38;;;5.90;99.90;;;;;;5011289;28;20197;-80
2020/12/30 13:06:07;;;;;;;11.50;10.30;;;5.90;99.90;;;;;;5012472;28;20250;-80
2020/12/30 13:08:33;;;;;;;11.25;9.98;;;5.90;99.90;;;;;;5012053;28;20259;-80
2020/12/30 13:10:59;;;;;;;12.48;10.30;;;5.90;99.90;;;;;;5011295;28;20400;-80
2020/12/30 13:13:25;;;;;;;11.20;10.05;;;5.90;99.90;;;;;;5012571;28;20209;-80
2020/12/30 13:15:51;;;;;;;11.90;10.05;;;5.80;99.90;;;;;;5011245;28;20173;-80
2020/12/30 13:18:17;;;;;;;10.40;9.30;;;5.90;99.90;;;;;;5011162;28;20193;-80
2020/12/30 13:20:43;;;;;;;11.07;9.98;;;5.80;99.90;;;;;;5011934;28;20649;-80
2020/12/30 13:23:09;;;;;;;12.20;10.10;;;5.80;99.90;;;;;;5011293;28;20685;-80
2020/12/30 13:25:35;;;;;;;11.05;9.93;;;5.80;99.90;;;;;;5010864;28;20284;-80
2020/12/30 13:28:00;;;;;;;9.45;8.38;;;5.80;99.90;;;;;;5012218;28;20177;-80
2020/12/30 13:30:26;;;;;;;11.65;9.23;;;5.80;99.90;;;;;;5011170;28;20576;-81
2020/12/30 13:32:52;;;;;;;10.35;9.18;;;5.80;99.90;;;;;;5010824;28;20286;-80
2020/12/30 13:35:17;;;;;;;9.88;8.88;;;5.80;99.90;;;;;;5010890;28;20276;-80
2020/12/30 13:37:43;;;;;;;8.95;8.02;;;5.80;99.90;;;;;;5012276;28;20260;-80
2020/12/30 13:40:09;;;;;;;11.63;9.77;;;5.80;99.90;;;;;;5011972;28;20235;-81
2020/12/30 13:42:35;;;;;;;10.23;9.25;;;5.80;99.90;;;;;;5012129;28;20165;-80
2020/12/30 13:45:05;;;;;;;9.98;8.93;;;5.80;99.90;;;;;;5012265;28;20550;-80
2020/12/30 13:47:31;;;;;;;10.45;8.95;;;5.80;99.90;;;;;;5012119;28;20176;-80
2020/12/30 13:49:56;;;;;;;11.30;9.18;;;5.70;99.90;;;;;;5010770;28;20196;-80
2020/12/30 13:52:22;;;;;;;8.50;7.70;;;5.80;99.90;;;;;;5012194;28;20606;-80
2020/12/30 13:54:47;;;;;;;9.65;8.25;;;5.80;99.90;;;;;;5010486;28;20559;-80
2020/12/30 13:57:13;;;;;;;9.38;8.48;;;5.80;99.90;;;;;;5012354;28;20173;-81
2020/12/30 13:59:39;;;;;;;9.52;8.48;;;5.80;99.90;;;;;;5010918;28;20205;-80
2020/12/30 14:02:05;;;;;;;9.27;8.38;;;5.70;99.90;;;;;;5010821;28;20186;-80
2020/12/30 14:04:31;;;;;;;10.00;8.95;;;5.80;99.90;;;;;;5011743;28;20224;-80
2020/12/30 14:07:00;;;;;;;9.18;8.27;;;5.70;99.90;;;;;;5010787;28;20205;-80
2020/12/30 14:09:27;;;;;;;8.50;7.65;;;5.80;99.90;;;;;;5010178;28;20298;-80
2020/12/30 14:11:53;;;;;;;9.90;8.00;;;5.80;99.90;;;;;;5012094;28;20178;-80
2020/12/30 14:14:19;;;;;;;11.35;9.07;;;5.80;99.90;;;;;;5011881;28;20217;-80
2020/12/30 14:16:44;;;;;;;18.92;14.68;;;5.70;99.90;;;;;;5011900;28;20232;-80
2020/12/30 14:19:11;;;;;;;12.57;11.10;;;5.70;99.90;;;;;;5011639;28;20197;-80
2020/12/30 14:21:37;;;;;;;9.27;8.45;;;5.80;99.90;;;;;;5011959;28;20161;-80
2020/12/30 14:24:03;;;;;;;9.48;8.48;;;5.80;99.90;;;;;;5010047;28;20566;-78
2020/12/30 14:26:29;;;;;;;9.40;8.40;;;5.70;99.90;;;;;;5011918;28;20200;-80
2020/12/30 14:28:54;;;;;;;8.73;7.63;;;5.60;99.90;;;;;;5011656;28;20605;-80
2020/12/30 14:31:20;;;;;;;10.38;9.40;;;5.70;99.90;;;;;;5011796;28;20174;-80
2020/12/30 14:33:47;;;;;;;11.90;10.77;;;5.70;99.90;;;;;;5014297;28;20220;-81
2020/12/30 14:36:18;;;;;;;9.95;8.80;;;5.70;99.90;;;;;;5015429;28;20173;-80
2020/12/30 14:38:44;;;;;;;9.43;8.45;;;5.60;99.90;;;;;;5013658;28;20193;-80
2020/12/30 14:41:13;;;;;;;11.35;9.02;;;5.90;99.90;;;;;;5013993;28;20639;-80
2020/12/30 14:43:39;;;;;;;12.13;10.00;;;5.60;99.90;;;;;;5015184;28;20185;-81
2020/12/30 14:46:05;;;;;;;9.63;8.73;;;5.70;99.90;;;;;;5013668;28;20272;-80
2020/12/30 14:48:32;;;;;;;10.43;7.90;;;5.30;99.90;;;;;;5013821;28;20189;-81
2020/12/30 14:50:58;;;;;;;9.38;8.48;;;5.80;99.90;;;;;;5014975;28;20173;-80
2020/12/30 14:53:24;;;;;;;9.32;8.50;;;5.60;99.90;;;;;;5013204;28;20279;-80
2020/12/30 14:55:49;;;;;;;14.45;12.75;;;5.30;99.90;;;;;;5014933;28;20197;-80
2020/12/30 14:58:15;;;;;;;40.92;24.63;;;5.60;99.90;;;;;;5014888;28;20586;-80
2020/12/30 15:00:41;;;;;;;20.33;13.68;;;5.60;99.90;;;;;;5013382;28;20178;-80
2020/12/30 15:03:07;;;;;;;74.55;39.42;;;5.60;99.90;;;;;;5013456;28;20173;-81
2020/12/30 15:05:33;;;;;;;83.45;40.60;;;6.20;99.90;;;;;;5013495;28;20183;-80
2020/12/30 15:08:00;;;;;;;63.25;28.90;;;5.60;99.90;;;;;;5013395;28;20174;-80
2020/12/30 15:10:26;;;;;;;35.97;17.60;;;5.70;99.90;;;;;;5014179;28;20221;-80
2020/12/30 15:12:51;;;;;;;58.95;27.05;;;5.60;99.90;;;;;;5013121;28;20312;-80
2020/12/30 15:15:17;;;;;;;84.22;33.67;;;5.60;99.90;;;;;;5013296;28;20661;-80
2020/12/30 15:17:43;;;;;;;46.92;23.00;;;;;;;;;;5013149;28;20179;-80
2020/12/30 15:20:09;;;;;;;31.20;15.02;;;5.50;99.90;;;;;;5014603;28;20208;-80
2020/12/30 15:22:35;;;;;;;39.78;23.40;;;5.60;99.90;;;;;;5014585;28;20252;-80
2020/12/30 15:25:01;;;;;;;18.23;12.38;;;5.50;99.90;;;;;;5012772;28;20657;-80
2020/12/30 15:27:28;;;;;;;11.05;8.30;;;5.50;99.90;;;;;;5012838;28;20169;-80
2020/12/30 15:29:54;;;;;;;9.10;7.95;;;5.50;99.90;;;;;;5012953;28;20252;-80
2020/12/30 15:32:20;;;;;;;7.90;7.10;;;5.50;99.90;;;;;;5014213;28;20180;-80
2020/12/30 15:34:48;;;;;;;8.38;7.55;;;5.40;99.90;;;;;;5012765;28;20225;-80
2020/12/30 15:37:13;;;;;;;8.68;7.05;;;5.40;99.90;;;;;;5012963;28;20169;-81
2020/12/30 15:39:39;;;;;;;8.00;7.20;;;5.40;99.90;;;;;;5012578;28;20196;-80
2020/12/30 15:42:05;;;;;;;8.95;7.18;;;5.40;99.90;;;;;;5012595;28;20177;-80
2020/12/30 15:44:31;;;;;;;11.23;8.63;;;5.30;99.90;;;;;;5012547;28;20734;-80
2020/12/30 15:46:57;;;;;;;12.63;8.65;;;5.30;99.90;;;;;;5013891;28;20170;-80
2020/12/30 15:49:22;;;;;;;10.10;8.23;;;5.50;99.90;;;;;;5013931;28;20197;-81
2020/12/30 15:51:52;;;;;;;14.38;10.32;;;5.30;99.90;;;;;;5012728;28;20169;-80
2020/12/30 15:54:18;;;;;;;17.83;12.35;;;5.00;99.90;;;;;;5013348;28;20211;-80
2020/12/30 15:56:48;;;;;;;21.83;13.07;;;5.00;99.90;;;;;;5012445;28;20547;-80
2020/12/30 15:59:14;;;;;;;19.13;12.48;;;5.10;99.90;;;;;;5013785;28;20193;-80
2020/12/30 16:01:41;;;;;;;18.55;11.27;;;;;;;;;;5012439;28;20180;-81
2020/12/30 16:04:07;;;;;;;13.32;9.80;;;5.20;99.90;;;;;;5013613;28;20189;-80
2020/12/30 16:06:32;;;;;;;11.02;9.25;;;5.20;99.90;;;;;;5013701;28;20180;-80
2020/12/30 16:08:58;;;;;;;11.77;9.98;;;5.20;99.90;;;;;;5012808;28;20240;-81
2020/12/30 16:11:24;;;;;;;12.73;9.90;;;5.20;99.90;;;;;;5012150;28;20177;-81
2020/12/30 16:13:50;;;;;;;11.00;8.85;;;5.10;99.90;;;;;;5013548;28;20252;-80
2020/12/30 16:16:16;;;;;;;9.85;8.73;;;5.20;99.90;;;;;;5013466;28;20176;-80
2020/12/30 16:18:41;;;;;;;9.93;8.88;;;5.10;99.90;;;;;;5013245;28;20694;-80
2020/12/30 16:21:07;;;;;;;11.15;8.57;;;6.70;99.90;;;;;;5012224;28;20173;-80
2020/12/30 16:23:33;;;;;;;10.00;8.02;;;5.10;99.90;;;;;;5011383;28;20208;-80
2020/12/30 16:25:59;;;;;;;9.85;8.85;;;5.10;99.90;;;;;;5013373;28;20260;-80
2020/12/30 16:28:25;;;;;;;10.52;8.23;;;5.10;99.90;;;;;;5011850;28;20257;-81
2020/12/30 16:30:52;;;;;;;8.02;7.28;;;5.10;99.90;;;;;;5011964;28;20177;-80
2020/12/30 16:33:18;;;;;;;9.32;8.40;;;5.10;99.90;;;;;;5011832;28;20220;-81
2020/12/30 16:35:44;;;;;;;9.30;7.78;;;5.10;99.90;;;;;;5013093;28;20252;-81
2020/12/30 16:38:10;;;;;;;8.85;7.63;;;5.10;99.90;;;;;;5011645;28;20177;-80
2020/12/30 16:40:36;;;;;;;8.60;7.75;;;5.30;99.90;;;;;;5011320;28;20170;-80
2020/12/30 16:43:02;;;;;;;9.90;8.40;;;5.30;99.90;;;;;;5012986;28;20539;-81
2020/12/30 16:45:28;;;;;;;9.77;8.52;;;;;;;;;;5011627;28;20181;-80
2020/12/30 16:47:54;;;;;;;10.45;8.88;;;5.10;99.90;;;;;;5012840;28;20212;-80
2020/12/30 16:50:19;;;;;;;9.65;8.65;;;5.10;99.90;;;;;;5012944;28;20196;-81
2020/12/30 16:52:45;;;;;;;10.13;8.65;;;5.10;99.90;;;;;;5012786;28;20667;-80
2020/12/30 16:55:12;;;;;;;9.18;8.00;;;5.10;99.90;;;;;;5010239;28;20217;-80
2020/12/30 16:57:38;;;;;;;9.52;8.52;;;5.00;99.90;;;;;;5012963;28;20352;-81